createdAt,value
2022-09-27T00:01:53.831Z,97561.22
2022-09-27T00:04:21.028Z,97562.91
2022-09-27T00:06:47.769Z,97560.03
2022-09-27T00:09:14.990Z,97556.44
2022-09-27T00:11:44.897Z,97554.31
2022-09-27T00:14:14.527Z,97547.34
2022-09-27T00:16:43.052Z,97543.75
2022-09-27T00:19:18.768Z,97545.53
2022-09-27T00:21:46.400Z,97542.91
2022-09-27T00:24:15.651Z,97547.34
2022-09-27T00:26:42.584Z,97545.66
2022-09-27T00:29:10.960Z,97543.22
2022-09-27T00:31:38.224Z,97542.63
2022-09-27T00:34:06.662Z,97540.72
2022-09-27T00:36:34.474Z,97529.28
2022-09-27T00:39:02.033Z,97528.47
2022-09-27T00:41:32.240Z,97520.88
2022-09-27T00:44:02.371Z,97522.91
2022-09-27T00:46:44.916Z,97522.69
2022-09-27T00:49:28.279Z,97514.38
2022-09-27T00:52:05.177Z,97512.06
2022-09-27T00:54:34.824Z,97508.94
2022-09-27T00:57:03.123Z,97511.91
2022-09-27T00:59:29.817Z,97501.84
2022-09-27T01:01:57.087Z,97502.38
2022-09-27T01:04:28.080Z,97501.97
2022-09-27T01:06:55.095Z,97497.56
2022-09-27T01:09:23.356Z,97493.97
2022-09-27T01:12:15.307Z,97496.63
2022-09-27T01:14:42.111Z,97491.88
2022-09-27T01:17:39.459Z,97496.50
2022-09-27T01:20:31.457Z,97487.84
2022-09-27T01:23:10.284Z,97489.53
2022-09-27T01:25:58.786Z,97480.34
2022-09-27T01:28:52.411Z,97476.75
2022-09-27T01:31:34.792Z,97474.50
2022-09-27T01:34:02.438Z,97479.13
2022-09-27T01:36:45.394Z,97481.22
2022-09-27T01:39:34.473Z,97466.56
2022-09-27T01:42:13.002Z,97470.47
2022-09-27T01:44:58.844Z,97468.41
2022-09-27T01:47:33.959Z,97464.41
2022-09-27T01:50:06.297Z,97467.63
2022-09-27T01:52:39.211Z,97460.50
2022-09-27T01:55:11.105Z,97459.66
2022-09-27T01:57:42.350Z,97456.00
2022-09-27T02:00:11.483Z,97466.72
2022-09-27T02:03:00.497Z,97459.28
2022-09-27T02:05:35.338Z,97464.00
2022-09-27T02:08:07.920Z,97458.09
2022-09-27T02:10:39.883Z,97457.72
2022-09-27T02:13:23.759Z,97458.94
2022-09-27T02:16:29.934Z,97448.84
2022-09-27T02:19:19.240Z,97448.44
2022-09-27T02:22:07.685Z,97444.97
2022-09-27T02:24:53.146Z,97447.22
2022-09-27T02:27:28.585Z,97446.22
2022-09-27T02:30:02.598Z,97445.91
2022-09-27T02:32:30.220Z,97449.84
2022-09-27T02:35:01.393Z,97445.13
2022-09-27T02:37:28.405Z,97442.50
2022-09-27T02:39:55.460Z,97433.78
2022-09-27T02:45:16.044Z,97438.38
2022-09-27T02:48:30.852Z,97439.41
2022-09-27T02:51:17.655Z,97438.19
2022-09-27T02:54:22.618Z,97432.44
2022-09-27T02:57:12.400Z,97426.03
2022-09-27T03:00:09.785Z,97423.09
2022-09-27T03:02:42.979Z,97424.53
2022-09-27T03:05:17.096Z,97421.50
2022-09-27T03:07:44.635Z,97423.94
2022-09-27T03:10:31.854Z,97425.22
2022-09-27T03:12:58.905Z,97423.03
2022-09-27T03:15:25.918Z,97427.03
2022-09-27T03:17:52.719Z,97432.13
2022-09-27T03:20:19.625Z,97417.81
2022-09-27T03:22:46.903Z,97417.81
2022-09-27T03:25:13.853Z,97415.91
2022-09-27T03:27:40.679Z,97416.66
2022-09-27T03:30:08.154Z,97417.28
2022-09-27T03:32:34.950Z,97415.41
2022-09-27T03:35:01.833Z,97415.09
2022-09-27T03:37:29.596Z,97419.41
2022-09-27T03:39:56.425Z,97416.78
2022-09-27T03:42:23.238Z,97414.88
2022-09-27T03:44:51.423Z,97421.94
2022-09-27T03:47:18.277Z,97417.31
2022-09-27T03:49:45.176Z,97420.72
2022-09-27T03:52:12.730Z,97405.84
2022-09-27T03:54:39.490Z,97408.56
2022-09-27T03:57:06.363Z,97400.56
2022-09-27T03:59:33.385Z,97398.69
2022-09-27T04:02:00.397Z,97401.22
2022-09-27T04:04:27.253Z,97402.06
2022-09-27T04:06:54.250Z,97409.00
2022-09-27T04:09:21.029Z,97409.88
2022-09-27T04:11:49.154Z,97406.16
2022-09-27T04:14:16.181Z,97408.69
2022-09-27T04:16:42.976Z,97409.31
2022-09-27T04:19:09.859Z,97403.13
2022-09-27T04:21:37.070Z,97395.22
2022-09-27T04:24:05.349Z,97401.53
2022-09-27T04:26:32.253Z,97394.59
2022-09-27T04:28:59.332Z,97398.88
2022-09-27T04:31:26.225Z,97399.00
2022-09-27T04:33:54.751Z,97399.94
2022-09-27T04:36:26.422Z,97398.28
2022-09-27T04:38:57.310Z,97393.00
2022-09-27T04:41:25.679Z,97401.09
2022-09-27T04:43:58.087Z,97396.25
2022-09-27T04:46:26.906Z,97400.03
2022-09-27T04:48:53.786Z,97390.66
2022-09-27T04:51:21.088Z,97400.00
2022-09-27T04:53:48.133Z,97393.38
2022-09-27T04:56:16.155Z,97396.19
2022-09-27T04:58:42.954Z,97399.88
2022-09-27T05:01:10.568Z,97398.09
2022-09-27T05:03:38.054Z,97392.09
2022-09-27T05:06:04.954Z,97380.72
2022-09-27T05:08:32.010Z,97385.16
2022-09-27T05:10:58.888Z,97391.16
2022-09-27T05:13:25.663Z,97391.78
2022-09-27T05:15:52.922Z,97390.75
2022-09-27T05:18:19.788Z,97392.34
2022-09-27T05:20:46.833Z,97399.91
2022-09-27T05:23:13.929Z,97401.28
2022-09-27T05:25:40.832Z,97403.41
2022-09-27T05:28:08.970Z,97401.41
2022-09-27T05:30:36.781Z,97401.84
2022-09-27T05:33:04.084Z,97392.47
2022-09-27T05:35:31.812Z,97388.38
2022-09-27T05:38:00.581Z,97379.94
2022-09-27T05:40:44.718Z,97380.47
2022-09-27T05:43:11.787Z,97380.75
2022-09-27T05:45:38.751Z,97367.81
2022-09-27T05:48:06.025Z,97371.78
2022-09-27T05:50:33.084Z,97371.41
2022-09-27T05:52:59.954Z,97367.06
2022-09-27T05:55:27.061Z,97376.94
2022-09-27T05:57:59.393Z,97374.78
2022-09-27T06:00:27.205Z,97379.88
2022-09-27T06:02:59.086Z,97378.91
2022-09-27T06:05:28.772Z,97378.91
2022-09-27T06:08:03.076Z,97386.94
2022-09-27T06:10:31.476Z,97367.84
2022-09-27T06:13:11.227Z,97369.47
2022-09-27T06:15:40.719Z,97368.91
2022-09-27T06:18:11.120Z,97375.84
2022-09-27T06:20:39.073Z,97377.28
2022-09-27T06:23:18.758Z,97374.69
2022-09-27T06:25:46.791Z,97371.13
2022-09-27T06:28:14.595Z,97373.31
2022-09-27T06:30:43.815Z,97370.44
2022-09-27T06:33:13.401Z,97370.44
2022-09-27T06:35:42.503Z,97375.25
2022-09-27T06:38:12.248Z,97369.22
2022-09-27T06:40:39.602Z,97372.09
2022-09-27T06:43:09.950Z,97371.41
2022-09-27T06:45:37.522Z,97370.44
2022-09-27T06:48:09.306Z,97366.34
2022-09-27T06:50:38.211Z,97371.41
2022-09-27T06:53:06.386Z,97371.50
2022-09-27T06:55:33.434Z,97374.03
2022-09-27T06:58:20.576Z,97372.72
2022-09-27T07:00:52.926Z,97369.59
2022-09-27T07:03:36.552Z,97383.06
2022-09-27T07:06:06.739Z,97382.06
2022-09-27T07:08:35.931Z,97374.00
2022-09-27T07:11:07.982Z,97376.69
2022-09-27T07:13:37.263Z,97370.03
2022-09-27T07:16:04.388Z,97371.63
2022-09-27T07:18:31.492Z,97370.03
2022-09-27T07:21:00.634Z,97370.25
2022-09-27T07:23:27.623Z,97354.28
2022-09-27T07:25:54.464Z,97361.38
2022-09-27T07:28:22.207Z,97359.63
2022-09-27T07:30:50.016Z,97356.53
2022-09-27T07:33:16.834Z,97357.69
2022-09-27T07:35:43.905Z,97362.09
2022-09-27T07:38:14.080Z,97359.63
2022-09-27T07:40:41.564Z,97369.50
2022-09-27T07:43:09.506Z,97367.94
2022-09-27T07:45:37.199Z,97364.06
2022-09-27T07:48:08.970Z,97361.47
2022-09-27T07:50:36.280Z,97365.00
2022-09-27T07:53:04.928Z,97365.84
2022-09-27T07:55:32.137Z,97367.16
2022-09-27T07:58:10.117Z,97356.41
2022-09-27T08:00:38.342Z,97362.41
2022-09-27T08:03:11.387Z,97356.47
2022-09-27T08:05:38.729Z,97360.50
2022-09-27T08:08:05.726Z,97358.88
2022-09-27T08:10:34.475Z,97359.59
2022-09-27T08:13:03.646Z,97356.63
2022-09-27T08:15:36.067Z,97354.41
2022-09-27T08:18:03.102Z,97352.66
2022-09-27T08:20:29.880Z,97359.78
2022-09-27T08:22:57.447Z,97356.44
2022-09-27T08:25:24.727Z,97355.97
2022-09-27T08:27:58.678Z,97357.19
2022-09-27T08:30:26.651Z,97362.84
2022-09-27T08:32:57.920Z,97363.25
2022-09-27T08:35:25.325Z,97343.53
2022-09-27T08:37:56.690Z,97346.72
2022-09-27T08:40:28.831Z,97345.56
2022-09-27T08:43:10.716Z,97345.41
2022-09-27T08:45:52.154Z,97347.28
2022-09-27T08:48:19.248Z,97355.00
2022-09-27T08:50:47.616Z,97359.34
2022-09-27T08:53:14.407Z,97360.69
2022-09-27T08:55:45.615Z,97346.84
2022-09-27T08:58:37.951Z,97344.69
2022-09-27T09:01:10.496Z,97339.88
2022-09-27T09:03:44.191Z,97332.88
2022-09-27T09:06:37.300Z,97336.22
2022-09-27T09:09:22.568Z,97329.94
2022-09-27T09:12:08.294Z,97328.31
2022-09-27T09:14:45.507Z,97327.78
2022-09-27T09:17:42.180Z,97321.75
2022-09-27T09:20:17.448Z,97316.75
2022-09-27T09:22:48.539Z,97315.00
2022-09-27T09:25:31.139Z,97311.44
2022-09-27T09:28:30.603Z,97317.31
2022-09-27T09:31:15.408Z,97313.09
2022-09-27T09:34:18.034Z,97319.38
2022-09-27T09:36:56.935Z,97324.59
2022-09-27T09:39:30.292Z,97318.56
2022-09-27T09:42:07.040Z,97310.19
2022-09-27T09:44:49.072Z,97303.31
2022-09-27T09:47:29.603Z,97309.00
2022-09-27T09:50:04.027Z,97312.28
2022-09-27T09:52:46.663Z,97298.31
2022-09-27T09:55:23.220Z,97299.94
2022-09-27T09:58:00.213Z,97302.34
2022-09-27T10:00:27.374Z,97300.28
2022-09-27T10:02:57.977Z,97302.94
2022-09-27T10:05:26.592Z,97296.28
2022-09-27T10:07:57.719Z,97303.56
2022-09-27T10:10:24.687Z,97291.97
2022-09-27T10:12:52.223Z,97296.38
2022-09-27T10:15:24.028Z,97281.28
2022-09-27T10:17:54.520Z,97279.78
2022-09-27T10:20:43.783Z,97287.00
2022-09-27T10:23:16.823Z,97283.03
2022-09-27T10:25:59.605Z,97282.56
2022-09-27T10:28:37.254Z,97271.34
2022-09-27T10:31:07.777Z,97268.41
2022-09-27T10:33:37.796Z,97266.94
2022-09-27T10:36:04.740Z,97259.03
2022-09-27T10:38:37.012Z,97255.97
2022-09-27T10:41:24.904Z,97251.28
2022-09-27T10:43:52.016Z,97248.41
2022-09-27T10:46:32.632Z,97253.91
2022-09-27T10:49:16.763Z,97245.88
2022-09-27T10:51:45.136Z,97250.81
2022-09-27T10:54:30.683Z,97244.75
2022-09-27T10:57:05.242Z,97238.66
2022-09-27T10:59:36.857Z,97244.91
2022-09-27T11:02:05.662Z,97237.38
2022-09-27T11:04:35.652Z,97231.94
2022-09-27T11:07:19.970Z,97235.41
2022-09-27T11:09:54.779Z,97224.03
2022-09-27T11:12:23.122Z,97221.00
2022-09-27T11:14:56.454Z,97221.09
2022-09-27T11:17:27.606Z,97211.88
2022-09-27T11:19:57.370Z,97220.47
2022-09-27T11:22:59.756Z,97220.81
2022-09-27T11:25:54.565Z,97214.34
2022-09-27T11:28:49.235Z,97213.13
2022-09-27T11:31:38.921Z,97203.47
2022-09-27T11:34:39.559Z,97201.31
2022-09-27T11:37:18.572Z,97200.63
2022-09-27T11:39:59.150Z,97199.38
2022-09-27T11:42:58.055Z,97198.25
2022-09-27T11:46:10.815Z,97193.59
2022-09-27T11:49:00.267Z,97187.31
2022-09-27T11:51:45.957Z,97190.28
2022-09-27T11:54:30.856Z,97191.88
2022-09-27T11:57:13.478Z,97187.22
2022-09-27T12:00:17.928Z,97183.88
2022-09-27T12:03:22.401Z,97176.28
2022-09-27T12:06:07.727Z,97174.75
2022-09-27T12:08:52.284Z,97170.88
2022-09-27T12:11:30.701Z,97169.91
2022-09-27T12:14:01.973Z,97165.47
2022-09-27T12:16:31.474Z,97162.25
2022-09-27T12:19:01.761Z,97164.09
2022-09-27T12:21:32.107Z,97156.34
2022-09-27T12:24:00.394Z,97160.25
2022-09-27T12:26:43.003Z,97163.34
2022-09-27T12:29:17.507Z,97154.66
2022-09-27T12:31:52.989Z,97159.25
2022-09-27T12:34:28.151Z,97158.19
2022-09-27T12:37:16.964Z,97154.44
2022-09-27T12:39:43.843Z,97155.69
2022-09-27T12:42:20.276Z,97148.50
2022-09-27T12:44:51.009Z,97150.28
2022-09-27T12:47:44.643Z,97148.09
2022-09-27T12:50:33.155Z,97138.22
2022-09-27T12:53:08.558Z,97138.25
2022-09-27T12:55:53.216Z,97141.44
2022-09-27T12:59:10.418Z,97139.56
2022-09-27T13:01:49.583Z,97137.97
2022-09-27T13:04:28.474Z,97138.69
2022-09-27T13:07:21.206Z,97139.78
2022-09-27T13:10:10.332Z,97129.34
2022-09-27T13:12:40.084Z,97134.47
2022-09-27T13:15:17.426Z,97131.16
2022-09-27T13:17:44.925Z,97132.16
2022-09-27T13:20:36.876Z,97130.28
2022-09-27T13:23:25.560Z,97113.63
2022-09-27T13:26:04.082Z,97114.06
2022-09-27T13:28:33.800Z,97106.91
2022-09-27T13:31:15.191Z,97116.88
2022-09-27T13:33:50.052Z,97111.34
2022-09-27T13:36:16.865Z,97108.09
2022-09-27T13:39:02.058Z,97101.94
2022-09-27T13:41:46.447Z,97111.19
2022-09-27T13:44:22.985Z,97109.53
2022-09-27T13:47:00.599Z,97110.81
2022-09-27T13:49:49.945Z,97112.31
2022-09-27T13:52:22.692Z,97109.25
2022-09-27T13:54:54.264Z,97114.28
2022-09-27T13:57:43.455Z,97107.31
2022-09-27T14:00:12.765Z,97108.13
2022-09-27T14:02:45.522Z,97101.25
2022-09-27T14:05:20.463Z,97104.94
2022-09-27T14:07:50.463Z,97094.91
2022-09-27T14:10:22.461Z,97100.44
2022-09-27T14:12:52.087Z,97094.66
2022-09-27T14:15:25.049Z,97095.06
2022-09-27T14:17:53.449Z,97091.06
2022-09-27T14:20:41.891Z,97097.28
2022-09-27T14:23:23.843Z,97095.97
2022-09-27T14:25:53.310Z,97090.47
2022-09-27T14:28:21.562Z,97097.84
2022-09-27T14:30:48.511Z,97090.47
2022-09-27T14:33:34.567Z,97085.59
2022-09-27T14:36:23.694Z,97086.09
2022-09-27T14:38:50.755Z,97092.41
2022-09-27T14:41:17.873Z,97087.41
2022-09-27T14:43:50.260Z,97093.91
2022-09-27T14:46:32.441Z,97074.03
2022-09-27T14:49:24.337Z,97081.03
2022-09-27T14:51:56.185Z,97072.69
2022-09-27T14:54:30.570Z,97072.19
2022-09-27T14:57:00.321Z,97078.69
2022-09-27T14:59:34.674Z,97081.50
2022-09-27T15:02:09.525Z,97078.00
2022-09-27T15:04:37.035Z,97070.66
2022-09-27T15:07:04.643Z,97067.66
2022-09-27T15:09:33.290Z,97074.13
2022-09-27T15:12:02.516Z,97071.13
2022-09-27T15:14:33.359Z,97071.28
2022-09-27T15:17:05.502Z,97067.94
2022-09-27T15:19:34.475Z,97068.28
2022-09-27T15:22:24.667Z,97079.06
2022-09-27T15:24:51.925Z,97059.75
2022-09-27T15:27:22.347Z,97061.06
2022-09-27T15:29:51.945Z,97069.81
2022-09-27T15:32:22.691Z,97072.75
2022-09-27T15:34:49.795Z,97068.53
2022-09-27T15:37:38.133Z,97078.38
2022-09-27T15:40:44.277Z,97078.44
2022-09-27T15:43:21.588Z,97073.28
2022-09-27T15:45:53.108Z,97073.38
2022-09-27T15:48:20.767Z,97074.13
2022-09-27T15:50:49.008Z,97074.13
2022-09-27T15:53:48.779Z,97068.09
2022-09-27T15:56:15.803Z,97072.53
2022-09-27T15:58:43.923Z,97069.72
2022-09-27T16:01:18.171Z,97073.88
2022-09-27T16:03:45.222Z,97075.41
2022-09-27T16:06:14.063Z,97074.72
2022-09-27T16:08:41.150Z,97078.91
2022-09-27T16:11:12.977Z,97080.44
2022-09-27T16:13:39.983Z,97084.84
2022-09-27T16:16:06.948Z,97085.13
2022-09-27T16:18:34.118Z,97085.56
2022-09-27T16:21:00.872Z,97086.56
2022-09-27T16:23:27.770Z,97085.88
2022-09-27T16:25:54.844Z,97085.06
2022-09-27T16:28:21.639Z,97083.22
2022-09-27T16:30:48.586Z,97088.69
2022-09-27T16:33:15.645Z,97078.81
2022-09-27T16:35:42.690Z,97077.19
2022-09-27T16:38:11.286Z,97080.31
2022-09-27T16:40:38.542Z,97074.88
2022-09-27T16:43:07.463Z,97083.03
2022-09-27T16:45:37.035Z,97075.78
2022-09-27T16:48:04.315Z,97068.56
2022-09-27T16:50:49.441Z,97064.94
2022-09-27T16:53:16.750Z,97062.78
2022-09-27T16:55:46.926Z,97072.28
2022-09-27T16:58:13.894Z,97072.19
2022-09-27T17:00:42.164Z,97067.19
2022-09-27T17:03:09.123Z,97070.72
2022-09-27T17:05:35.928Z,97066.69
2022-09-27T17:08:02.969Z,97068.81
2022-09-27T17:10:31.784Z,97069.09
2022-09-27T17:12:58.592Z,97071.34
2022-09-27T17:15:26.031Z,97069.00
2022-09-27T17:17:52.758Z,97063.13
2022-09-27T17:20:19.563Z,97065.91
2022-09-27T17:22:47.248Z,97066.84
2022-09-27T17:25:14.108Z,97072.97
2022-09-27T17:27:40.871Z,97066.97
2022-09-27T17:30:08.364Z,97073.59
2022-09-27T17:32:35.233Z,97075.97
2022-09-27T17:35:02.811Z,97064.34
2022-09-27T17:37:30.211Z,97069.47
2022-09-27T17:39:57.690Z,97072.53
2022-09-27T17:42:25.470Z,97069.16
2022-09-27T17:44:52.852Z,97068.34
2022-09-27T17:47:38.243Z,97063.44
2022-09-27T17:50:24.364Z,97067.44
2022-09-27T17:52:56.526Z,97074.41
2022-09-27T17:55:23.881Z,97061.81
2022-09-27T17:57:51.614Z,97068.34
2022-09-27T18:00:20.466Z,97072.34
2022-09-27T18:02:47.673Z,97065.44
2022-09-27T18:05:14.910Z,97080.06
2022-09-27T18:07:42.380Z,97073.72
2022-09-27T18:10:09.444Z,97067.09
2022-09-27T18:12:36.237Z,97061.38
2022-09-27T18:15:04.050Z,97065.38
2022-09-27T18:17:31.130Z,97062.53
2022-09-27T18:20:00.072Z,97056.78
2022-09-27T18:22:31.137Z,97061.03
2022-09-27T18:24:58.134Z,97074.75
2022-09-27T18:27:25.341Z,97070.09
2022-09-27T18:29:52.644Z,97071.19
2022-09-27T18:32:19.727Z,97077.94
2022-09-27T18:34:46.589Z,97075.66
2022-09-27T18:37:13.306Z,97068.13
2022-09-27T18:39:40.946Z,97078.94
2022-09-27T18:42:09.071Z,97077.63
2022-09-27T18:44:35.950Z,97073.69
2022-09-27T18:47:03.149Z,97068.91
2022-09-27T18:49:33.770Z,97077.19
2022-09-27T18:52:01.369Z,97072.66
2022-09-27T18:54:28.343Z,97074.13
2022-09-27T18:56:55.104Z,97072.91
2022-09-27T18:59:23.608Z,97073.41
2022-09-27T19:01:51.173Z,97073.63
2022-09-27T19:04:26.708Z,97069.31
2022-09-27T19:06:56.005Z,97070.28
2022-09-27T19:09:24.556Z,97064.28
2022-09-27T19:11:51.369Z,97074.00
2022-09-27T19:14:22.405Z,97067.78
2022-09-27T19:16:50.073Z,97071.72
2022-09-27T19:19:18.355Z,97072.56
2022-09-27T19:21:46.563Z,97077.81
2022-09-27T19:24:14.330Z,97078.09
2022-09-27T19:26:41.560Z,97072.44
2022-09-27T19:29:08.591Z,97073.88
2022-09-27T19:31:36.076Z,97073.28
2022-09-27T19:34:03.079Z,97073.59
2022-09-27T19:36:30.178Z,97070.50
2022-09-27T19:38:58.965Z,97070.13
2022-09-27T19:41:26.835Z,97073.38
2022-09-27T19:43:55.320Z,97072.84
2022-09-27T19:46:24.235Z,97070.72
2022-09-27T19:48:51.947Z,97073.66
2022-09-27T19:51:21.242Z,97071.63
2022-09-27T19:53:48.817Z,97066.97
2022-09-27T19:56:15.719Z,97074.34
2022-09-27T19:58:43.041Z,97078.31
2022-09-27T20:01:14.747Z,97078.03
2022-09-27T20:03:43.607Z,97067.84
2022-09-27T20:06:12.907Z,97064.81
2022-09-27T20:08:40.515Z,97076.31
2022-09-27T20:11:12.997Z,97065.88
2022-09-27T20:13:40.445Z,97065.78
2022-09-27T20:16:08.904Z,97062.19
2022-09-27T20:18:40.171Z,97066.16
2022-09-27T20:21:07.732Z,97070.94
2022-09-27T20:23:35.555Z,97068.09
2022-09-27T20:26:10.427Z,97061.75
2022-09-27T20:28:45.449Z,97057.31
2022-09-27T20:31:14.824Z,97055.53
2022-09-27T20:33:42.093Z,97039.94
2022-09-27T20:36:09.627Z,97041.84
2022-09-27T20:38:36.466Z,97030.59
2022-09-27T20:41:04.036Z,97034.41
2022-09-27T20:43:31.601Z,97040.03
2022-09-27T20:46:07.488Z,97045.78
2022-09-27T20:48:36.183Z,97043.47
2022-09-27T20:51:04.955Z,97039.41
2022-09-27T20:53:32.911Z,97032.66
2022-09-27T20:56:04.343Z,97042.81
2022-09-27T20:58:32.270Z,97047.47
2022-09-27T21:01:05.893Z,97041.47
2022-09-27T21:03:33.301Z,97038.72
2022-09-27T21:06:00.374Z,97038.50
2022-09-27T21:08:31.159Z,97034.91
2022-09-27T21:11:05.615Z,97035.41
2022-09-27T21:13:32.522Z,97043.81
2022-09-27T21:16:01.259Z,97044.44
2022-09-27T21:18:28.135Z,97044.19
2022-09-27T21:21:17.955Z,97046.28
2022-09-27T21:23:46.324Z,97045.28
2022-09-27T21:26:14.505Z,97042.91
2022-09-27T21:28:46.583Z,97035.34
2022-09-27T21:31:23.228Z,97044.91
2022-09-27T21:33:55.170Z,97039.16
2022-09-27T21:36:23.710Z,97041.91
2022-09-27T21:38:51.182Z,97043.81
2022-09-27T21:41:18.616Z,97043.94
2022-09-27T21:43:47.880Z,97042.25
2022-09-27T21:46:16.434Z,97040.56
2022-09-27T21:48:46.242Z,97042.25
2022-09-27T21:51:15.392Z,97041.16
2022-09-27T21:53:45.179Z,97044.44
2022-09-27T21:56:12.070Z,97039.78
2022-09-27T21:58:40.633Z,97039.78
2022-09-27T22:01:29.777Z,97044.09
2022-09-27T22:03:58.607Z,97033.31
2022-09-27T22:06:31.067Z,97041.09
2022-09-27T22:08:59.646Z,97047.09
2022-09-27T22:11:29.467Z,97043.72
2022-09-27T22:13:57.300Z,97036.66
2022-09-27T22:16:26.935Z,97039.09
2022-09-27T22:18:55.855Z,97045.91
2022-09-27T22:21:26.040Z,97053.38
2022-09-27T22:24:08.338Z,97049.53
2022-09-27T22:26:38.290Z,97053.03
2022-09-27T22:29:06.424Z,97053.97
2022-09-27T22:31:34.393Z,97059.13
2022-09-27T22:34:03.793Z,97055.66
2022-09-27T22:36:32.398Z,97049.41
2022-09-27T22:38:59.529Z,97044.88
2022-09-27T22:41:26.443Z,97042.34
2022-09-27T22:43:56.141Z,97044.88
2022-09-27T22:46:22.962Z,97052.53
2022-09-27T22:48:50.169Z,97046.44
2022-09-27T22:51:17.863Z,97048.72
2022-09-27T22:53:44.696Z,97037.81
2022-09-27T22:56:15.708Z,97036.63
2022-09-27T22:58:44.133Z,97038.81
2022-09-27T23:01:13.290Z,97046.47
2022-09-27T23:03:40.395Z,97038.22
2022-09-27T23:06:07.658Z,97051.75
2022-09-27T23:08:36.249Z,97052.28
2022-09-27T23:11:12.177Z,97053.47
2022-09-27T23:13:41.593Z,97058.72
2022-09-27T23:16:11.081Z,97061.13
2022-09-27T23:18:38.327Z,97059.94
2022-09-27T23:21:10.631Z,97061.03
2022-09-27T23:23:44.945Z,97059.38
2022-09-27T23:26:14.539Z,97058.78
2022-09-27T23:28:41.550Z,97064.53
2022-09-27T23:31:13.878Z,97066.81
2022-09-27T23:33:43.400Z,97077.81
2022-09-27T23:36:15.025Z,97064.28
2022-09-27T23:38:43.482Z,97073.78
2022-09-27T23:41:10.210Z,97068.34
2022-09-27T23:43:37.408Z,97067.53
2022-09-27T23:46:06.647Z,97068.50
2022-09-27T23:48:35.020Z,97066.06
2022-09-27T23:51:02.974Z,97067.53
2022-09-27T23:53:29.949Z,97063.69
2022-09-27T23:56:15.197Z,97062.50
2022-09-27T23:58:44.156Z,97071.84
